sensor_id;sensor_type;location;lat;lon;timestamp;temperature;humidity
48666;DHT22;34452;50.796;4.994;2023-04-01T00:02:07;9.90;99.90
48666;DHT22;34452;50.796;4.994;2023-04-01T00:04:33;9.90;99.90
48666;DHT22;34452;50.796;4.994;2023-04-01T00:06:59;9.90;99.90
48666;DHT22;34452;50.796;4.994;2023-04-01T00:09:25;9.90;99.90
48666;DHT22;34452;50.796;4.994;2023-04-01T00:11:51;9.90;99.90
48666;DHT22;34452;50.796;4.994;2023-04-01T00:14:17;9.90;99.90
48666;DHT22;34452;50.796;4.994;2023-04-01T00:16:43;9.90;99.90
48666;DHT22;34452;50.796;4.994;2023-04-01T00:19:08;9.90;99.90
48666;DHT22;34452;50.796;4.994;2023-04-01T00:21:34;9.90;99.90
48666;DHT22;34452;50.796;4.994;2023-04-01T00:24:00;9.80;99.90
48666;DHT22;34452;50.796;4.994;2023-04-01T00:26:26;9.90;99.90
48666;DHT22;34452;50.796;4.994;2023-04-01T00:28:52;9.90;99.90
48666;DHT22;34452;50.796;4.994;2023-04-01T00:31:19;9.80;99.90
48666;DHT22;34452;50.796;4.994;2023-04-01T00:33:45;9.90;99.90
48666;DHT22;34452;50.796;4.994;2023-04-01T00:36:13;9.90;99.90
48666;DHT22;34452;50.796;4.994;2023-04-01T00:38:40;9.80;99.90
48666;DHT22;34452;50.796;4.994;2023-04-01T00:41:08;9.80;99.90
48666;DHT22;34452;50.796;4.994;2023-04-01T00:43:34;9.90;99.90
48666;DHT22;34452;50.796;4.994;2023-04-01T00:46:00;9.90;99.90
48666;DHT22;34452;50.796;4.994;2023-04-01T00:48:47;9.90;99.90
48666;DHT22;34452;50.796;4.994;2023-04-01T00:51:17;9.90;99.90
48666;DHT22;34452;50.796;4.994;2023-04-01T00:53:47;9.90;99.90
48666;DHT22;34452;50.796;4.994;2023-04-01T00:58:46;9.90;99.90
48666;DHT22;34452;50.796;4.994;2023-04-01T01:01:14;9.80;99.90
48666;DHT22;34452;50.796;4.994;2023-04-01T01:03:41;9.80;99.90
48666;DHT22;34452;50.796;4.994;2023-04-01T01:06:28;9.80;99.90
48666;DHT22;34452;50.796;4.994;2023-04-01T01:09:14;9.80;99.90
48666;DHT22;34452;50.796;4.994;2023-04-01T01:11:50;9.80;99.90
48666;DHT22;34452;50.796;4.994;2023-04-01T01:20:18;9.80;99.90
48666;DHT22;34452;50.796;4.994;2023-04-01T01:37:14;9.80;99.90
48666;DHT22;34452;50.796;4.994;2023-04-01T01:39:42;9.80;99.90
48666;DHT22;34452;50.796;4.994;2023-04-01T01:42:11;9.80;99.90
48666;DHT22;34452;50.796;4.994;2023-04-01T01:44:39;9.80;99.90
48666;DHT22;34452;50.796;4.994;2023-04-01T01:47:06;9.80;99.90
48666;DHT22;34452;50.796;4.994;2023-04-01T01:49:33;9.80;99.90
48666;DHT22;34452;50.796;4.994;2023-04-01T01:51:59;9.80;99.90
48666;DHT22;34452;50.796;4.994;2023-04-01T01:54:25;9.80;99.90
48666;DHT22;34452;50.796;4.994;2023-04-01T01:56:59;9.80;99.90
48666;DHT22;34452;50.796;4.994;2023-04-01T01:59:28;9.80;99.90
48666;DHT22;34452;50.796;4.994;2023-04-01T02:01:56;9.90;99.90
48666;DHT22;34452;50.796;4.994;2023-04-01T02:04:22;9.80;99.90
48666;DHT22;34452;50.796;4.994;2023-04-01T02:06:56;9.90;99.90
48666;DHT22;34452;50.796;4.994;2023-04-01T02:09:23;9.90;99.90
48666;DHT22;34452;50.796;4.994;2023-04-01T02:11:55;9.90;99.90
48666;DHT22;34452;50.796;4.994;2023-04-01T02:14:24;9.90;99.90
48666;DHT22;34452;50.796;4.994;2023-04-01T02:17:07;9.90;99.90
48666;DHT22;34452;50.796;4.994;2023-04-01T02:22:24;9.90;99.90
48666;DHT22;34452;50.796;4.994;2023-04-01T02:24:53;9.90;99.90
48666;DHT22;34452;50.796;4.994;2023-04-01T02:27:20;9.90;99.90
48666;DHT22;34452;50.796;4.994;2023-04-01T02:29:46;9.90;99.90
48666;DHT22;34452;50.796;4.994;2023-04-01T02:32:13;9.90;99.90
48666;DHT22;34452;50.796;4.994;2023-04-01T02:34:40;9.90;99.90
48666;DHT22;34452;50.796;4.994;2023-04-01T02:37:06;9.90;99.90
48666;DHT22;34452;50.796;4.994;2023-04-01T02:39:32;9.90;99.90
48666;DHT22;34452;50.796;4.994;2023-04-01T02:41:58;9.90;99.90
48666;DHT22;34452;50.796;4.994;2023-04-01T02:44:24;9.90;99.90
48666;DHT22;34452;50.796;4.994;2023-04-01T02:46:50;9.90;99.90
48666;DHT22;34452;50.796;4.994;2023-04-01T02:49:15;9.90;99.90
48666;DHT22;34452;50.796;4.994;2023-04-01T02:51:41;9.90;99.90
48666;DHT22;34452;50.796;4.994;2023-04-01T02:54:07;10.00;99.90
48666;DHT22;34452;50.796;4.994;2023-04-01T02:56:32;10.00;99.90
48666;DHT22;34452;50.796;4.994;2023-04-01T02:58:58;10.00;99.90
48666;DHT22;34452;50.796;4.994;2023-04-01T03:01:24;10.00;99.90
48666;DHT22;34452;50.796;4.994;2023-04-01T03:03:50;10.00;99.90
48666;DHT22;34452;50.796;4.994;2023-04-01T03:06:16;10.00;99.90
48666;DHT22;34452;50.796;4.994;2023-04-01T03:08:43;10.00;99.90
48666;DHT22;34452;50.796;4.994;2023-04-01T03:11:09;9.90;99.90
48666;DHT22;34452;50.796;4.994;2023-04-01T03:13:36;9.90;99.90
48666;DHT22;34452;50.796;4.994;2023-04-01T03:16:02;9.90;99.90
48666;DHT22;34452;50.796;4.994;2023-04-01T03:18:27;9.90;99.90
48666;DHT22;34452;50.796;4.994;2023-04-01T03:20:53;9.90;99.90
48666;DHT22;34452;50.796;4.994;2023-04-01T03:23:19;9.90;99.90
48666;DHT22;34452;50.796;4.994;2023-04-01T03:25:46;9.90;99.90
48666;DHT22;34452;50.796;4.994;2023-04-01T03:28:12;9.90;99.90
48666;DHT22;34452;50.796;4.994;2023-04-01T03:30:39;9.90;99.90
48666;DHT22;34452;50.796;4.994;2023-04-01T03:33:05;9.90;99.90
48666;DHT22;34452;50.796;4.994;2023-04-01T03:35:31;9.90;99.90
48666;DHT22;34452;50.796;4.994;2023-04-01T03:37:57;9.90;99.90
48666;DHT22;34452;50.796;4.994;2023-04-01T03:40:23;9.80;99.90
48666;DHT22;34452;50.796;4.994;2023-04-01T03:42:49;9.80;99.90
48666;DHT22;34452;50.796;4.994;2023-04-01T03:45:15;9.80;99.90
48666;DHT22;34452;50.796;4.994;2023-04-01T03:47:41;9.70;99.90
48666;DHT22;34452;50.796;4.994;2023-04-01T03:50:08;9.70;99.90
48666;DHT22;34452;50.796;4.994;2023-04-01T03:52:34;9.70;99.90
48666;DHT22;34452;50.796;4.994;2023-04-01T03:55:00;9.70;99.90
48666;DHT22;34452;50.796;4.994;2023-04-01T03:57:26;9.70;99.90
48666;DHT22;34452;50.796;4.994;2023-04-01T03:59:52;9.70;99.90
48666;DHT22;34452;50.796;4.994;2023-04-01T04:02:18;9.70;99.90
48666;DHT22;34452;50.796;4.994;2023-04-01T04:04:44;9.70;99.90
48666;DHT22;34452;50.796;4.994;2023-04-01T04:07:11;9.70;99.90
48666;DHT22;34452;50.796;4.994;2023-04-01T04:09:37;9.70;99.90
48666;DHT22;34452;50.796;4.994;2023-04-01T04:12:03;9.70;99.90
48666;DHT22;34452;50.796;4.994;2023-04-01T04:14:31;9.70;99.90
48666;DHT22;34452;50.796;4.994;2023-04-01T04:16:57;9.70;99.90
48666;DHT22;34452;50.796;4.994;2023-04-01T04:19:22;9.70;99.90
48666;DHT22;34452;50.796;4.994;2023-04-01T04:21:48;9.70;99.90
48666;DHT22;34452;50.796;4.994;2023-04-01T04:24:14;9.70;99.90
48666;DHT22;34452;50.796;4.994;2023-04-01T04:26:40;9.70;99.90
48666;DHT22;34452;50.796;4.994;2023-04-01T04:29:06;9.70;99.90
48666;DHT22;34452;50.796;4.994;2023-04-01T04:31:31;9.70;99.90
48666;DHT22;34452;50.796;4.994;2023-04-01T04:33:59;9.70;99.90
48666;DHT22;34452;50.796;4.994;2023-04-01T04:36:25;9.70;99.90
48666;DHT22;34452;50.796;4.994;2023-04-01T04:38:51;9.70;99.90
48666;DHT22;34452;50.796;4.994;2023-04-01T04:41:18;9.70;99.90
48666;DHT22;34452;50.796;4.994;2023-04-01T04:44:03;9.70;99.90
48666;DHT22;34452;50.796;4.994;2023-04-01T04:46:29;9.70;99.90
48666;DHT22;34452;50.796;4.994;2023-04-01T04:48:55;9.70;99.90
48666;DHT22;34452;50.796;4.994;2023-04-01T04:51:21;9.70;99.90
48666;DHT22;34452;50.796;4.994;2023-04-01T04:53:48;9.70;99.90
48666;DHT22;34452;50.796;4.994;2023-04-01T04:56:18;9.70;99.90
48666;DHT22;34452;50.796;4.994;2023-04-01T04:58:45;9.70;99.90
48666;DHT22;34452;50.796;4.994;2023-04-01T05:01:14;9.70;99.90
48666;DHT22;34452;50.796;4.994;2023-04-01T05:03:40;9.70;99.90
48666;DHT22;34452;50.796;4.994;2023-04-01T05:06:06;9.70;99.90
48666;DHT22;34452;50.796;4.994;2023-04-01T05:08:32;9.70;99.90
48666;DHT22;34452;50.796;4.994;2023-04-01T05:11:00;9.70;99.90
48666;DHT22;34452;50.796;4.994;2023-04-01T05:13:27;9.70;99.90
48666;DHT22;34452;50.796;4.994;2023-04-01T05:15:52;9.70;99.90
48666;DHT22;34452;50.796;4.994;2023-04-01T05:18:18;9.70;99.90
48666;DHT22;34452;50.796;4.994;2023-04-01T05:21:03;9.70;99.90
48666;DHT22;34452;50.796;4.994;2023-04-01T05:23:31;9.70;99.90
48666;DHT22;34452;50.796;4.994;2023-04-01T05:25:57;9.70;99.90
48666;DHT22;34452;50.796;4.994;2023-04-01T05:28:22;9.70;99.90
48666;DHT22;34452;50.796;4.994;2023-04-01T05:30:48;9.70;99.90
48666;DHT22;34452;50.796;4.994;2023-04-01T05:33:14;9.70;99.90
48666;DHT22;34452;50.796;4.994;2023-04-01T05:35:40;9.70;99.90
48666;DHT22;34452;50.796;4.994;2023-04-01T05:38:06;9.70;99.90
48666;DHT22;34452;50.796;4.994;2023-04-01T05:40:32;9.70;99.90
48666;DHT22;34452;50.796;4.994;2023-04-01T05:42:58;9.70;99.90
48666;DHT22;34452;50.796;4.994;2023-04-01T05:45:24;9.70;99.90
48666;DHT22;34452;50.796;4.994;2023-04-01T05:47:50;9.70;99.90
48666;DHT22;34452;50.796;4.994;2023-04-01T05:50:16;9.70;99.90
48666;DHT22;34452;50.796;4.994;2023-04-01T05:52:42;9.70;99.90
48666;DHT22;34452;50.796;4.994;2023-04-01T05:55:08;9.80;99.90
48666;DHT22;34452;50.796;4.994;2023-04-01T05:57:34;9.80;99.90
48666;DHT22;34452;50.796;4.994;2023-04-01T05:59:59;9.80;99.90
48666;DHT22;34452;50.796;4.994;2023-04-01T06:02:25;9.80;99.90
48666;DHT22;34452;50.796;4.994;2023-04-01T06:05:00;9.80;99.90
48666;DHT22;34452;50.796;4.994;2023-04-01T06:07:27;9.70;99.90
48666;DHT22;34452;50.796;4.994;2023-04-01T06:09:54;9.70;99.90
48666;DHT22;34452;50.796;4.994;2023-04-01T06:20:11;9.70;99.90
48666;DHT22;34452;50.796;4.994;2023-04-01T06:25:52;9.80;99.90
48666;DHT22;34452;50.796;4.994;2023-04-01T06:34:21;9.80;99.90
48666;DHT22;34452;50.796;4.994;2023-04-01T06:39:34;9.80;99.90
48666;DHT22;34452;50.796;4.994;2023-04-01T06:44:49;9.80;99.90
48666;DHT22;34452;50.796;4.994;2023-04-01T06:47:37;9.80;99.90
48666;DHT22;34452;50.796;4.994;2023-04-01T06:55:46;9.80;99.90
48666;DHT22;34452;50.796;4.994;2023-04-01T07:01:04;9.70;99.90
48666;DHT22;34452;50.796;4.994;2023-04-01T07:03:43;9.80;99.90
48666;DHT22;34452;50.796;4.994;2023-04-01T07:06:23;9.70;99.90
48666;DHT22;34452;50.796;4.994;2023-04-01T07:08:53;9.80;99.90
48666;DHT22;34452;50.796;4.994;2023-04-01T07:11:25;9.80;99.90
48666;DHT22;34452;50.796;4.994;2023-04-01T07:13:58;9.70;99.90
48666;DHT22;34452;50.796;4.994;2023-04-01T07:22:38;9.70;99.90
48666;DHT22;34452;50.796;4.994;2023-04-01T07:25:13;9.70;99.90
48666;DHT22;34452;50.796;4.994;2023-04-01T07:27:39;9.60;99.90
48666;DHT22;34452;50.796;4.994;2023-04-01T07:30:16;9.70;99.90
48666;DHT22;34452;50.796;4.994;2023-04-01T07:32:50;9.70;99.90
48666;DHT22;34452;50.796;4.994;2023-04-01T07:35:54;9.70;99.90
48666;DHT22;34452;50.796;4.994;2023-04-01T07:47:50;9.80;99.90
48666;DHT22;34452;50.796;4.994;2023-04-01T07:50:25;9.80;99.90
48666;DHT22;34452;50.796;4.994;2023-04-01T07:53:07;9.80;99.90
48666;DHT22;34452;50.796;4.994;2023-04-01T07:55:43;9.80;99.90
48666;DHT22;34452;50.796;4.994;2023-04-01T08:06:57;9.80;99.90
48666;DHT22;34452;50.796;4.994;2023-04-01T08:12:37;9.80;99.90
48666;DHT22;34452;50.796;4.994;2023-04-01T08:15:16;9.90;99.90
48666;DHT22;34452;50.796;4.994;2023-04-01T08:25:48;10.00;99.90
48666;DHT22;34452;50.796;4.994;2023-04-01T08:31:19;10.00;99.90
48666;DHT22;34452;50.796;4.994;2023-04-01T08:33:49;10.10;99.90
48666;DHT22;34452;50.796;4.994;2023-04-01T08:36:23;10.00;99.90
48666;DHT22;34452;50.796;4.994;2023-04-01T08:39:11;10.10;99.90
48666;DHT22;34452;50.796;4.994;2023-04-01T08:42:04;10.20;99.90
48666;DHT22;34452;50.796;4.994;2023-04-01T08:50:28;10.20;99.90
48666;DHT22;34452;50.796;4.994;2023-04-01T08:56:12;10.20;99.90
48666;DHT22;34452;50.796;4.994;2023-04-01T09:04:50;10.20;99.90
48666;DHT22;34452;50.796;4.994;2023-04-01T09:15:40;10.10;99.90
48666;DHT22;34452;50.796;4.994;2023-04-01T09:18:32;10.10;99.90
48666;DHT22;34452;50.796;4.994;2023-04-01T09:21:24;10.20;99.90
48666;DHT22;34452;50.796;4.994;2023-04-01T09:24:24;10.40;99.90
48666;DHT22;34452;50.796;4.994;2023-04-01T09:27:02;10.50;99.90
48666;DHT22;34452;50.796;4.994;2023-04-01T09:38:16;10.60;99.90
48666;DHT22;34452;50.796;4.994;2023-04-01T09:40:55;10.60;99.90
48666;DHT22;34452;50.796;4.994;2023-04-01T09:43:22;10.50;99.90
48666;DHT22;34452;50.796;4.994;2023-04-01T09:54:48;10.50;99.90
48666;DHT22;34452;50.796;4.994;2023-04-01T10:06:18;10.70;99.90
48666;DHT22;34452;50.796;4.994;2023-04-01T10:29:12;10.80;99.90
48666;DHT22;34452;50.796;4.994;2023-04-01T10:52:20;11.00;99.90
48666;DHT22;34452;50.796;4.994;2023-04-01T11:01:03;11.30;99.90
48666;DHT22;34452;50.796;4.994;2023-04-01T11:09:54;11.60;99.90
48666;DHT22;34452;50.796;4.994;2023-04-01T11:21:28;11.60;99.90
48666;DHT22;34452;50.796;4.994;2023-04-01T11:29:38;11.70;99.90
48666;DHT22;34452;50.796;4.994;2023-04-01T11:37:41;11.90;99.90
48666;DHT22;34452;50.796;4.994;2023-04-01T11:43:21;11.70;99.90
48666;DHT22;34452;50.796;4.994;2023-04-01T11:46:03;11.80;99.90
48666;DHT22;34452;50.796;4.994;2023-04-01T11:48:45;11.90;99.90
48666;DHT22;34452;50.796;4.994;2023-04-01T12:14:45;11.90;99.90
48666;DHT22;34452;50.796;4.994;2023-04-01T12:31:30;11.80;99.90
48666;DHT22;34452;50.796;4.994;2023-04-01T12:37:02;11.90;99.90
48666;DHT22;34452;50.796;4.994;2023-04-01T12:39:38;11.90;99.90
48666;DHT22;34452;50.796;4.994;2023-04-01T12:45:34;11.90;99.90
48666;DHT22;34452;50.796;4.994;2023-04-01T12:56:39;11.60;99.90
48666;DHT22;34452;50.796;4.994;2023-04-01T13:02:07;11.50;99.90
48666;DHT22;34452;50.796;4.994;2023-04-01T13:07:56;11.40;99.90
48666;DHT22;34452;50.796;4.994;2023-04-01T13:13:48;11.30;99.90
48666;DHT22;34452;50.796;4.994;2023-04-01T13:16:21;11.40;99.90
48666;DHT22;34452;50.796;4.994;2023-04-01T13:27:41;11.40;99.90
48666;DHT22;34452;50.796;4.994;2023-04-01T13:30:30;11.30;99.90
48666;DHT22;34452;50.796;4.994;2023-04-01T13:33:10;11.30;99.90
48666;DHT22;34452;50.796;4.994;2023-04-01T13:44:00;11.00;99.90
48666;DHT22;34452;50.796;4.994;2023-04-01T13:46:41;11.00;99.90
48666;DHT22;34452;50.796;4.994;2023-04-01T13:55:33;11.10;99.90
48666;DHT22;34452;50.796;4.994;2023-04-01T14:01:25;11.20;99.90
48666;DHT22;34452;50.796;4.994;2023-04-01T14:07:14;11.00;99.90
48666;DHT22;34452;50.796;4.994;2023-04-01T14:23:47;11.00;99.90
48666;DHT22;34452;50.796;4.994;2023-04-01T14:26:30;11.10;99.90
48666;DHT22;34452;50.796;4.994;2023-04-01T14:37:55;10.80;99.90
48666;DHT22;34452;50.796;4.994;2023-04-01T14:51:39;10.70;99.90
48666;DHT22;34452;50.796;4.994;2023-04-01T14:57:01;10.70;99.90
48666;DHT22;34452;50.796;4.994;2023-04-01T14:59:29;10.70;99.90
48666;DHT22;34452;50.796;4.994;2023-04-01T15:07:45;10.80;99.90
48666;DHT22;34452;50.796;4.994;2023-04-01T15:24:15;11.10;99.90
48666;DHT22;34452;50.796;4.994;2023-04-01T15:29:46;11.10;99.90
48666;DHT22;34452;50.796;4.994;2023-04-01T15:32:22;11.10;99.90
48666;DHT22;34452;50.796;4.994;2023-04-01T15:34:54;11.20;99.90
48666;DHT22;34452;50.796;4.994;2023-04-01T15:40:28;11.20;99.90
48666;DHT22;34452;50.796;4.994;2023-04-01T15:43:19;11.10;99.90
48666;DHT22;34452;50.796;4.994;2023-04-01T15:48:41;11.10;99.90
48666;DHT22;34452;50.796;4.994;2023-04-01T16:02:43;10.90;99.90
48666;DHT22;34452;50.796;4.994;2023-04-01T16:11:18;10.80;99.90
48666;DHT22;34452;50.796;4.994;2023-04-01T16:14:09;11.00;99.90
48666;DHT22;34452;50.796;4.994;2023-04-01T16:22:13;10.90;99.90
48666;DHT22;34452;50.796;4.994;2023-04-01T16:31:00;10.70;99.90
48666;DHT22;34452;50.796;4.994;2023-04-01T16:33:49;10.70;99.90
48666;DHT22;34452;50.796;4.994;2023-04-01T16:39:47;10.70;99.90
48666;DHT22;34452;50.796;4.994;2023-04-01T16:42:35;10.70;99.90
48666;DHT22;34452;50.796;4.994;2023-04-01T16:50:23;10.70;99.90
48666;DHT22;34452;50.796;4.994;2023-04-01T16:53:08;10.60;99.90
48666;DHT22;34452;50.796;4.994;2023-04-01T16:55:56;10.60;99.90
48666;DHT22;34452;50.796;4.994;2023-04-01T17:04:16;10.50;99.90
48666;DHT22;34452;50.796;4.994;2023-04-01T17:06:52;10.40;99.90
48666;DHT22;34452;50.796;4.994;2023-04-01T17:09:35;10.30;99.90
48666;DHT22;34452;50.796;4.994;2023-04-01T17:12:25;10.20;99.90
48666;DHT22;34452;50.796;4.994;2023-04-01T17:15:17;10.00;99.90
48666;DHT22;34452;50.796;4.994;2023-04-01T17:17:49;9.90;99.90
48666;DHT22;34452;50.796;4.994;2023-04-01T17:20:23;9.90;99.90
48666;DHT22;34452;50.796;4.994;2023-04-01T17:23:12;9.90;99.90
48666;DHT22;34452;50.796;4.994;2023-04-01T17:25:46;9.90;99.90
48666;DHT22;34452;50.796;4.994;2023-04-01T17:33:59;9.70;99.90
48666;DHT22;34452;50.796;4.994;2023-04-01T17:45:41;9.70;99.90
48666;DHT22;34452;50.796;4.994;2023-04-01T17:48:21;9.70;99.90
48666;DHT22;34452;50.796;4.994;2023-04-01T17:59:35;9.70;99.90
48666;DHT22;34452;50.796;4.994;2023-04-01T18:05:15;9.60;99.90
48666;DHT22;34452;50.796;4.994;2023-04-01T18:11:10;9.60;99.90
48666;DHT22;34452;50.796;4.994;2023-04-01T18:13:59;9.60;99.90
48666;DHT22;34452;50.796;4.994;2023-04-01T18:25:32;9.50;99.90
48666;DHT22;34452;50.796;4.994;2023-04-01T18:31:15;9.50;99.90
48666;DHT22;34452;50.796;4.994;2023-04-01T18:36:44;9.50;99.90
48666;DHT22;34452;50.796;4.994;2023-04-01T18:39:42;9.50;99.90
48666;DHT22;34452;50.796;4.994;2023-04-01T18:47:47;9.50;99.90
48666;DHT22;34452;50.796;4.994;2023-04-01T18:50:23;9.50;99.90
48666;DHT22;34452;50.796;4.994;2023-04-01T18:52:57;9.50;99.90
48666;DHT22;34452;50.796;4.994;2023-04-01T18:55:40;9.60;99.90
48666;DHT22;34452;50.796;4.994;2023-04-01T18:58:25;9.60;99.90
48666;DHT22;34452;50.796;4.994;2023-04-01T19:03:41;9.60;99.90
48666;DHT22;34452;50.796;4.994;2023-04-01T19:06:41;9.60;99.90
48666;DHT22;34452;50.796;4.994;2023-04-01T19:09:29;9.50;99.90
48666;DHT22;34452;50.796;4.994;2023-04-01T19:12:08;9.40;99.90
48666;DHT22;34452;50.796;4.994;2023-04-01T19:26:00;9.40;99.90
48666;DHT22;34452;50.796;4.994;2023-04-01T19:28:56;9.50;99.90
48666;DHT22;34452;50.796;4.994;2023-04-01T19:31:49;9.50;99.90
48666;DHT22;34452;50.796;4.994;2023-04-01T19:34:22;9.50;99.90
48666;DHT22;34452;50.796;4.994;2023-04-01T19:37:22;9.50;99.90
48666;DHT22;34452;50.796;4.994;2023-04-01T19:43:24;9.50;99.90
48666;DHT22;34452;50.796;4.994;2023-04-01T19:48:53;9.50;99.90
48666;DHT22;34452;50.796;4.994;2023-04-01T19:57:30;9.40;99.90
48666;DHT22;34452;50.796;4.994;2023-04-01T20:02:56;9.40;99.90
48666;DHT22;34452;50.796;4.994;2023-04-01T20:08:41;9.50;99.90
48666;DHT22;34452;50.796;4.994;2023-04-01T20:11:13;9.40;99.90
48666;DHT22;34452;50.796;4.994;2023-04-01T20:13:56;9.40;99.90
48666;DHT22;34452;50.796;4.994;2023-04-01T20:19:45;9.40;99.90
48666;DHT22;34452;50.796;4.994;2023-04-01T20:22:37;9.40;99.90
48666;DHT22;34452;50.796;4.994;2023-04-01T20:25:15;9.40;99.90
48666;DHT22;34452;50.796;4.994;2023-04-01T20:27:55;9.40;99.90
48666;DHT22;34452;50.796;4.994;2023-04-01T20:36:12;9.40;99.90
48666;DHT22;34452;50.796;4.994;2023-04-01T20:44:12;9.40;99.90
48666;DHT22;34452;50.796;4.994;2023-04-01T20:49:40;9.40;99.90
48666;DHT22;34452;50.796;4.994;2023-04-01T20:52:19;9.40;99.90
48666;DHT22;34452;50.796;4.994;2023-04-01T20:57:42;9.50;99.90
48666;DHT22;34452;50.796;4.994;2023-04-01T21:00:41;9.50;99.90
48666;DHT22;34452;50.796;4.994;2023-04-01T21:03:14;9.50;99.90
48666;DHT22;34452;50.796;4.994;2023-04-01T21:05:49;9.50;99.90
48666;DHT22;34452;50.796;4.994;2023-04-01T21:08:39;9.50;99.90
48666;DHT22;34452;50.796;4.994;2023-04-01T21:11:18;9.50;99.90
48666;DHT22;34452;50.796;4.994;2023-04-01T21:22:29;9.50;99.90
48666;DHT22;34452;50.796;4.994;2023-04-01T21:25:08;9.50;99.90
48666;DHT22;34452;50.796;4.994;2023-04-01T21:44:21;9.60;99.90
48666;DHT22;34452;50.796;4.994;2023-04-01T22:20:53;9.60;99.90
48666;DHT22;34452;50.796;4.994;2023-04-01T22:26:28;9.50;99.90
48666;DHT22;34452;50.796;4.994;2023-04-01T22:38:01;9.40;99.90
48666;DHT22;34452;50.796;4.994;2023-04-01T22:40:39;9.40;99.90
48666;DHT22;34452;50.796;4.994;2023-04-01T22:43:12;9.30;99.90
48666;DHT22;34452;50.796;4.994;2023-04-01T22:57:13;9.30;99.90
48666;DHT22;34452;50.796;4.994;2023-04-01T22:59:58;9.30;99.90
48666;DHT22;34452;50.796;4.994;2023-04-01T23:05:28;9.20;99.90
48666;DHT22;34452;50.796;4.994;2023-04-01T23:13:18;9.20;99.90
48666;DHT22;34452;50.796;4.994;2023-04-01T23:15:46;9.20;99.90
48666;DHT22;34452;50.796;4.994;2023-04-01T23:18:34;9.10;99.90
48666;DHT22;34452;50.796;4.994;2023-04-01T23:21:06;9.20;99.90
48666;DHT22;34452;50.796;4.994;2023-04-01T23:23:52;9.10;99.90
48666;DHT22;34452;50.796;4.994;2023-04-01T23:26:29;9.10;99.90
48666;DHT22;34452;50.796;4.994;2023-04-01T23:28:57;9.00;99.90
48666;DHT22;34452;50.796;4.994;2023-04-01T23:31:37;9.00;99.90
48666;DHT22;34452;50.796;4.994;2023-04-01T23:36:53;8.90;99.90
48666;DHT22;34452;50.796;4.994;2023-04-01T23:41:46;8.90;99.90
48666;DHT22;34452;50.796;4.994;2023-04-01T23:44:13;8.80;99.90
48666;DHT22;34452;50.796;4.994;2023-04-01T23:46:40;8.80;99.90
48666;DHT22;34452;50.796;4.994;2023-04-01T23:52:14;8.80;99.90
48666;DHT22;34452;50.796;4.994;2023-04-01T23:54:54;8.80;99.90
48666;DHT22;34452;50.796;4.994;2023-04-01T23:57:28;8.70;99.90
